sensor_id;sensor_type;location;lat;lon;timestamp;pressure;altitude;pressure_sealevel;temperature;humidity
72560;BME280;62987;52.382;9.752;2022-12-05T00:01:50;101177.81;;;1.91;96.21
72560;BME280;62987;52.382;9.752;2022-12-05T00:04:17;101179.56;;;1.95;96.09
72560;BME280;62987;52.382;9.752;2022-12-05T00:06:46;101182.19;;;1.96;96.63
72560;BME280;62987;52.382;9.752;2022-12-05T00:09:14;101183.97;;;1.94;96.52
72560;BME280;62987;52.382;9.752;2022-12-05T00:11:43;101178.69;;;1.97;96.74
72560;BME280;62987;52.382;9.752;2022-12-05T00:14:13;101174.31;;;2.01;96.35
72560;BME280;62987;52.382;9.752;2022-12-05T00:16:42;101176.09;;;2.00;96.96
72560;BME280;62987;52.382;9.752;2022-12-05T00:19:12;101165.59;;;1.94;96.01
72560;BME280;62987;52.382;9.752;2022-12-05T00:21:41;101170.84;;;1.99;96.39
72560;BME280;62987;52.382;9.752;2022-12-05T00:24:16;101157.72;;;1.97;96.18
72560;BME280;62987;52.382;9.752;2022-12-05T00:26:45;101161.22;;;1.99;96.62
72560;BME280;62987;52.382;9.752;2022-12-05T00:29:14;101167.34;;;1.98;96.33
72560;BME280;62987;52.382;9.752;2022-12-05T00:31:42;101166.47;;;1.99;96.92
72560;BME280;62987;52.382;9.752;2022-12-05T00:34:10;101162.97;;;2.00;96.24
72560;BME280;62987;52.382;9.752;2022-12-05T00:36:38;101165.59;;;1.99;96.64
72560;BME280;62987;52.382;9.752;2022-12-05T00:39:09;101162.09;;;2.00;96.41
72560;BME280;62987;52.382;9.752;2022-12-05T00:41:38;101161.22;;;2.03;96.84
72560;BME280;62987;52.382;9.752;2022-12-05T00:44:06;101165.59;;;2.05;96.23
72560;BME280;62987;52.382;9.752;2022-12-05T00:46:35;101156.84;;;2.06;95.97
72560;BME280;62987;52.382;9.752;2022-12-05T00:49:05;101160.34;;;2.07;96.42
72560;BME280;62987;52.382;9.752;2022-12-05T00:51:35;101157.72;;;2.07;96.56
72560;BME280;62987;52.382;9.752;2022-12-05T00:54:05;101159.44;;;2.08;96.47
72560;BME280;62987;52.382;9.752;2022-12-05T00:56:34;101167.34;;;2.06;96.78
72560;BME280;62987;52.382;9.752;2022-12-05T00:59:03;101166.47;;;2.10;96.31
72560;BME280;62987;52.382;9.752;2022-12-05T01:01:33;101168.22;;;2.10;96.19
72560;BME280;62987;52.382;9.752;2022-12-05T01:04:05;101155.09;;;1.99;95.97
72560;BME280;62987;52.382;9.752;2022-12-05T01:06:33;101163.84;;;2.04;96.64
72560;BME280;62987;52.382;9.752;2022-12-05T01:09:03;101166.44;;;2.09;96.40
72560;BME280;62987;52.382;9.752;2022-12-05T01:11:32;101174.31;;;2.10;95.67
72560;BME280;62987;52.382;9.752;2022-12-05T01:14:07;101176.97;;;2.06;96.73
72560;BME280;62987;52.382;9.752;2022-12-05T01:16:37;101169.94;;;2.08;96.12
72560;BME280;62987;52.382;9.752;2022-12-05T01:19:11;101163.84;;;2.07;95.79
72560;BME280;62987;52.382;9.752;2022-12-05T01:21:39;101166.44;;;2.09;95.90
72560;BME280;62987;52.382;9.752;2022-12-05T01:24:07;101167.34;;;2.11;95.75
72560;BME280;62987;52.382;9.752;2022-12-05T01:26:35;101158.59;;;2.03;95.86
72560;BME280;62987;52.382;9.752;2022-12-05T01:29:03;101166.47;;;2.06;96.80
72560;BME280;62987;52.382;9.752;2022-12-05T01:31:33;101168.22;;;2.10;96.25
72560;BME280;62987;52.382;9.752;2022-12-05T01:34:04;101164.72;;;2.05;95.91
72560;BME280;62987;52.382;9.752;2022-12-05T01:36:34;101164.72;;;2.05;96.44
72560;BME280;62987;52.382;9.752;2022-12-05T01:39:02;101169.06;;;2.09;96.12
72560;BME280;62987;52.382;9.752;2022-12-05T01:41:33;101165.59;;;2.07;96.58
72560;BME280;62987;52.382;9.752;2022-12-05T01:44:05;101158.59;;;2.07;96.53
72560;BME280;62987;52.382;9.752;2022-12-05T01:46:36;101159.47;;;2.05;96.81
72560;BME280;62987;52.382;9.752;2022-12-05T01:49:07;101158.59;;;2.12;96.18
72560;BME280;62987;52.382;9.752;2022-12-05T01:51:39;101159.47;;;2.14;96.45
72560;BME280;62987;52.382;9.752;2022-12-05T01:54:09;101156.84;;;2.11;95.80
72560;BME280;62987;52.382;9.752;2022-12-05T01:56:39;101159.47;;;2.12;96.37
72560;BME280;62987;52.382;9.752;2022-12-05T01:59:08;101155.97;;;2.12;96.61
72560;BME280;62987;52.382;9.752;2022-12-05T02:01:38;101159.47;;;2.14;95.99
72560;BME280;62987;52.382;9.752;2022-12-05T02:04:07;101159.47;;;2.11;95.87
72560;BME280;62987;52.382;9.752;2022-12-05T02:06:36;101150.72;;;2.12;96.15
72560;BME280;62987;52.382;9.752;2022-12-05T02:09:05;101143.75;;;2.14;96.78
72560;BME280;62987;52.382;9.752;2022-12-05T02:11:34;101154.22;;;2.11;96.80
72560;BME280;62987;52.382;9.752;2022-12-05T02:14:19;101150.72;;;2.13;95.83
72560;BME280;62987;52.382;9.752;2022-12-05T02:16:58;101156.84;;;2.17;96.16
72560;BME280;62987;52.382;9.752;2022-12-05T02:19:52;101159.44;;;2.15;96.60
72560;BME280;62987;52.382;9.752;2022-12-05T02:25:36;101153.34;;;2.13;96.49
72560;BME280;62987;52.382;9.752;2022-12-05T02:28:28;101151.59;;;2.08;96.10
72560;BME280;62987;52.382;9.752;2022-12-05T02:31:03;101154.22;;;2.09;96.91
72560;BME280;62987;52.382;9.752;2022-12-05T02:33:35;101158.59;;;2.09;96.57
72560;BME280;62987;52.382;9.752;2022-12-05T02:36:06;101149.84;;;2.11;97.08
72560;BME280;62987;52.382;9.752;2022-12-05T02:38:40;101155.09;;;2.07;96.37
72560;BME280;62987;52.382;9.752;2022-12-05T02:41:15;101142.88;;;2.06;96.87
72560;BME280;62987;52.382;9.752;2022-12-05T02:43:50;101141.97;;;2.08;97.18
72560;BME280;62987;52.382;9.752;2022-12-05T02:46:23;101134.97;;;2.09;96.61
72560;BME280;62987;52.382;9.752;2022-12-05T02:48:56;101143.72;;;2.09;96.69
72560;BME280;62987;52.382;9.752;2022-12-05T02:51:29;101130.59;;;2.09;97.20
72560;BME280;62987;52.382;9.752;2022-12-05T02:54:01;101138.47;;;2.11;96.75
72560;BME280;62987;52.382;9.752;2022-12-05T02:56:32;101141.97;;;2.13;96.52
72560;BME280;62987;52.382;9.752;2022-12-05T02:59:01;101148.09;;;2.12;96.60
72560;BME280;62987;52.382;9.752;2022-12-05T03:01:31;101148.97;;;2.11;96.55
72560;BME280;62987;52.382;9.752;2022-12-05T03:04:02;101138.47;;;2.12;97.12
72560;BME280;62987;52.382;9.752;2022-12-05T03:06:34;101141.13;;;2.14;97.09
72560;BME280;62987;52.382;9.752;2022-12-05T03:09:07;101140.22;;;2.10;96.34
72560;BME280;62987;52.382;9.752;2022-12-05T03:11:39;101141.97;;;2.13;97.21
72560;BME280;62987;52.382;9.752;2022-12-05T03:14:12;101114.00;;;1.98;96.72
72560;BME280;62987;52.382;9.752;2022-12-05T03:16:48;101140.22;;;2.18;96.33
72560;BME280;62987;52.382;9.752;2022-12-05T03:19:20;101138.50;;;2.06;96.69
72560;BME280;62987;52.382;9.752;2022-12-05T03:21:52;101144.59;;;2.10;96.23
72560;BME280;62987;52.382;9.752;2022-12-05T03:24:23;101141.97;;;2.13;97.14
72560;BME280;62987;52.382;9.752;2022-12-05T03:26:56;101145.47;;;2.15;97.21
72560;BME280;62987;52.382;9.752;2022-12-05T03:29:32;101147.22;;;2.16;97.08
72560;BME280;62987;52.382;9.752;2022-12-05T03:32:10;101147.22;;;2.19;97.09
72560;BME280;62987;52.382;9.752;2022-12-05T03:34:49;101146.34;;;2.20;96.98
72560;BME280;62987;52.382;9.752;2022-12-05T03:37:26;101145.47;;;2.15;96.71
72560;BME280;62987;52.382;9.752;2022-12-05T03:40:04;101147.22;;;2.16;96.54
72560;BME280;62987;52.382;9.752;2022-12-05T03:42:35;101146.34;;;2.17;96.54
72560;BME280;62987;52.382;9.752;2022-12-05T03:45:07;101145.47;;;2.15;96.27
72560;BME280;62987;52.382;9.752;2022-12-05T03:47:44;101141.97;;;2.11;96.39
72560;BME280;62987;52.382;9.752;2022-12-05T03:50:21;101142.84;;;2.15;96.76
72560;BME280;62987;52.382;9.752;2022-12-05T03:52:54;101144.59;;;2.14;96.61
72560;BME280;62987;52.382;9.752;2022-12-05T03:55:44;101143.72;;;2.17;96.84
72560;BME280;62987;52.382;9.752;2022-12-05T03:58:19;101141.09;;;2.21;96.38
72560;BME280;62987;52.382;9.752;2022-12-05T04:00:51;101135.84;;;2.20;96.46
72560;BME280;62987;52.382;9.752;2022-12-05T04:03:26;101139.34;;;2.17;96.31
72560;BME280;62987;52.382;9.752;2022-12-05T04:06:09;101140.22;;;2.19;96.54
72560;BME280;62987;52.382;9.752;2022-12-05T04:08:43;101144.59;;;2.22;96.22
72560;BME280;62987;52.382;9.752;2022-12-05T04:11:16;101134.97;;;2.24;96.56
72560;BME280;62987;52.382;9.752;2022-12-05T04:13:47;101130.59;;;2.23;96.29
72560;BME280;62987;52.382;9.752;2022-12-05T04:16:19;101135.84;;;2.21;96.27
72560;BME280;62987;52.382;9.752;2022-12-05T04:19:14;101136.72;;;2.25;96.63
72560;BME280;62987;52.382;9.752;2022-12-05T04:21:46;101129.72;;;2.18;96.51
72560;BME280;62987;52.382;9.752;2022-12-05T04:24:18;101133.22;;;2.21;96.52
72560;BME280;62987;52.382;9.752;2022-12-05T04:27:11;101134.97;;;2.21;96.02
72560;BME280;62987;52.382;9.752;2022-12-05T04:29:52;101136.72;;;2.16;96.92
72560;BME280;62987;52.382;9.752;2022-12-05T04:32:25;101128.88;;;2.20;97.10
72560;BME280;62987;52.382;9.752;2022-12-05T04:35:00;101128.00;;;2.20;96.16
72560;BME280;62987;52.382;9.752;2022-12-05T04:37:31;101123.59;;;2.16;96.40
72560;BME280;62987;52.382;9.752;2022-12-05T04:40:06;101134.97;;;2.15;96.80
72560;BME280;62987;52.382;9.752;2022-12-05T04:42:38;101129.72;;;2.18;96.73
72560;BME280;62987;52.382;9.752;2022-12-05T04:45:10;101123.63;;;2.07;96.89
72560;BME280;62987;52.382;9.752;2022-12-05T04:47:44;101129.72;;;2.18;96.88
72560;BME280;62987;52.382;9.752;2022-12-05T04:50:17;101128.00;;;2.20;97.43
72560;BME280;62987;52.382;9.752;2022-12-05T04:52:48;101128.84;;;2.16;96.67
72560;BME280;62987;52.382;9.752;2022-12-05T04:55:20;101131.47;;;2.16;96.85
72560;BME280;62987;52.382;9.752;2022-12-05T04:58:03;101125.34;;;2.15;97.13
72560;BME280;62987;52.382;9.752;2022-12-05T05:00:39;101127.97;;;2.17;96.38
72560;BME280;62987;52.382;9.752;2022-12-05T05:03:16;101128.84;;;2.16;96.79
72560;BME280;62987;52.382;9.752;2022-12-05T05:05:48;101117.50;;;2.01;96.64
72560;BME280;62987;52.382;9.752;2022-12-05T05:08:22;101125.34;;;2.09;97.53
72560;BME280;62987;52.382;9.752;2022-12-05T05:11:02;101128.84;;;2.10;97.03
72560;BME280;62987;52.382;9.752;2022-12-05T05:13:31;101136.72;;;2.14;96.96
72560;BME280;62987;52.382;9.752;2022-12-05T05:15:59;101129.72;;;2.09;97.45
72560;BME280;62987;52.382;9.752;2022-12-05T05:18:27;101132.34;;;2.10;96.75
72560;BME280;62987;52.382;9.752;2022-12-05T05:20:56;101134.97;;;2.12;97.35
72560;BME280;62987;52.382;9.752;2022-12-05T05:23:24;101132.38;;;2.13;96.53
72560;BME280;62987;52.382;9.752;2022-12-05T05:25:53;101146.34;;;2.11;96.71
72560;BME280;62987;52.382;9.752;2022-12-05T05:28:22;101134.13;;;2.13;96.73
72560;BME280;62987;52.382;9.752;2022-12-05T05:30:50;101139.38;;;2.13;97.46
72560;BME280;62987;52.382;9.752;2022-12-05T05:33:18;101127.09;;;2.03;96.59
72560;BME280;62987;52.382;9.752;2022-12-05T05:35:46;101141.09;;;2.03;96.47
72560;BME280;62987;52.382;9.752;2022-12-05T05:38:15;101138.47;;;2.03;97.17
72560;BME280;62987;52.382;9.752;2022-12-05T05:40:43;101134.13;;;2.07;97.44
72560;BME280;62987;52.382;9.752;2022-12-05T05:43:11;101145.47;;;2.09;96.70
72560;BME280;62987;52.382;9.752;2022-12-05T05:45:39;101135.84;;;2.08;96.73
72560;BME280;62987;52.382;9.752;2022-12-05T05:48:07;101140.25;;;2.06;96.73
72560;BME280;62987;52.382;9.752;2022-12-05T05:50:35;101144.59;;;2.05;96.73
72560;BME280;62987;52.382;9.752;2022-12-05T05:53:10;101124.50;;;1.96;97.08
72560;BME280;62987;52.382;9.752;2022-12-05T05:55:39;101140.22;;;2.04;96.95
72560;BME280;62987;52.382;9.752;2022-12-05T05:58:08;101142.84;;;2.04;97.10
72560;BME280;62987;52.382;9.752;2022-12-05T06:00:36;101145.47;;;2.09;96.60
72560;BME280;62987;52.382;9.752;2022-12-05T06:03:04;101148.97;;;2.08;97.07
72560;BME280;62987;52.382;9.752;2022-12-05T06:05:32;101139.38;;;2.07;96.73
72560;BME280;62987;52.382;9.752;2022-12-05T06:08:00;101138.50;;;2.06;96.57
72560;BME280;62987;52.382;9.752;2022-12-05T06:10:28;101145.47;;;2.09;97.06
72560;BME280;62987;52.382;9.752;2022-12-05T06:12:58;101140.25;;;2.06;97.17
72560;BME280;62987;52.382;9.752;2022-12-05T06:15:26;101140.25;;;2.06;97.23
72560;BME280;62987;52.382;9.752;2022-12-05T06:17:55;101100.00;;;1.82;96.75
72560;BME280;62987;52.382;9.752;2022-12-05T06:20:23;101144.59;;;2.02;96.46
72560;BME280;62987;52.382;9.752;2022-12-05T06:22:51;101146.34;;;2.03;96.26
72560;BME280;62987;52.382;9.752;2022-12-05T06:25:19;101142.84;;;2.03;96.60
72560;BME280;62987;52.382;9.752;2022-12-05T06:27:47;101139.38;;;1.99;96.93
72560;BME280;62987;52.382;9.752;2022-12-05T06:30:16;101134.97;;;1.90;96.19
72560;BME280;62987;52.382;9.752;2022-12-05T06:32:44;101136.72;;;2.02;96.95
72560;BME280;62987;52.382;9.752;2022-12-05T06:35:12;101112.25;;;1.83;96.15
72560;BME280;62987;52.382;9.752;2022-12-05T06:37:42;101140.22;;;2.01;96.15
72560;BME280;62987;52.382;9.752;2022-12-05T06:40:11;101143.72;;;1.95;96.81
72560;BME280;62987;52.382;9.752;2022-12-05T06:42:39;101107.00;;;1.64;96.24
72560;BME280;62987;52.382;9.752;2022-12-05T06:45:08;101150.75;;;1.93;96.46
72560;BME280;62987;52.382;9.752;2022-12-05T06:47:37;101147.25;;;1.87;96.39
72560;BME280;62987;52.382;9.752;2022-12-05T06:50:06;101156.81;;;1.82;97.31
72560;BME280;62987;52.382;9.752;2022-12-05T06:52:34;101159.47;;;1.80;96.88
72560;BME280;62987;52.382;9.752;2022-12-05T06:55:03;101154.19;;;1.82;97.04
72560;BME280;62987;52.382;9.752;2022-12-05T06:57:31;101167.34;;;1.80;96.40
72560;BME280;62987;52.382;9.752;2022-12-05T06:59:59;101167.31;;;1.73;96.91
72560;BME280;62987;52.382;9.752;2022-12-05T07:02:42;101172.56;;;1.79;96.59
72560;BME280;62987;52.382;9.752;2022-12-05T07:05:10;101170.81;;;1.76;97.37
72560;BME280;62987;52.382;9.752;2022-12-05T07:07:38;101169.06;;;1.74;96.58
72560;BME280;62987;52.382;9.752;2022-12-05T07:10:07;101161.22;;;1.74;96.69
72560;BME280;62987;52.382;9.752;2022-12-05T07:12:35;101176.94;;;1.80;96.56
72560;BME280;62987;52.382;9.752;2022-12-05T07:15:04;101168.19;;;1.76;97.00
72560;BME280;62987;52.382;9.752;2022-12-05T07:17:34;101169.97;;;1.80;96.64
72560;BME280;62987;52.382;9.752;2022-12-05T07:20:05;101174.31;;;1.78;96.36
72560;BME280;62987;52.382;9.752;2022-12-05T07:22:35;101175.19;;;1.77;96.95
72560;BME280;62987;52.382;9.752;2022-12-05T07:25:03;101175.19;;;1.77;96.78
72560;BME280;62987;52.382;9.752;2022-12-05T07:27:31;101178.66;;;1.76;96.58
72560;BME280;62987;52.382;9.752;2022-12-05T07:29:59;101181.28;;;1.76;96.52
72560;BME280;62987;52.382;9.752;2022-12-05T07:32:30;101183.06;;;1.74;96.32
72560;BME280;62987;52.382;9.752;2022-12-05T07:34:58;101178.66;;;1.70;96.59
72560;BME280;62987;52.382;9.752;2022-12-05T07:37:28;101179.53;;;1.75;97.06
72560;BME280;62987;52.382;9.752;2022-12-05T07:39:56;101155.06;;;1.61;95.92
72560;BME280;62987;52.382;9.752;2022-12-05T07:42:26;101187.41;;;1.78;96.03
72560;BME280;62987;52.382;9.752;2022-12-05T07:44:54;101185.69;;;1.80;95.95
72560;BME280;62987;52.382;9.752;2022-12-05T07:47:22;101181.28;;;1.82;96.50
72560;BME280;62987;52.382;9.752;2022-12-05T07:49:50;101187.44;;;1.84;96.19
72560;BME280;62987;52.382;9.752;2022-12-05T07:52:18;101188.28;;;1.82;95.72
72560;BME280;62987;52.382;9.752;2022-12-05T07:54:47;101183.91;;;1.82;96.13
72560;BME280;62987;52.382;9.752;2022-12-05T07:57:15;101183.94;;;1.85;95.66
72560;BME280;62987;52.382;9.752;2022-12-05T07:59:43;101184.81;;;1.86;96.23
72560;BME280;62987;52.382;9.752;2022-12-05T08:02:11;101188.31;;;1.85;96.07
72560;BME280;62987;52.382;9.752;2022-12-05T08:04:39;101190.91;;;1.83;95.54
72560;BME280;62987;52.382;9.752;2022-12-05T08:07:09;101185.69;;;1.89;95.94
72560;BME280;62987;52.382;9.752;2022-12-05T08:09:37;101159.47;;;1.74;96.73
72560;BME280;62987;52.382;9.752;2022-12-05T08:12:07;101199.66;;;1.88;96.46
72560;BME280;62987;52.382;9.752;2022-12-05T08:14:35;101198.81;;;1.94;96.35
72560;BME280;62987;52.382;9.752;2022-12-05T08:17:03;101197.06;;;1.91;96.05
72560;BME280;62987;52.382;9.752;2022-12-05T08:19:31;101194.44;;;2.04;96.50
72560;BME280;62987;52.382;9.752;2022-12-05T08:21:59;101194.44;;;2.00;95.64
72560;BME280;62987;52.382;9.752;2022-12-05T08:24:27;101193.56;;;2.05;95.38
72560;BME280;62987;52.382;9.752;2022-12-05T08:26:55;101194.44;;;2.00;95.47
72560;BME280;62987;52.382;9.752;2022-12-05T08:29:24;101184.81;;;1.98;95.45
72560;BME280;62987;52.382;9.752;2022-12-05T08:31:52;101199.69;;;2.04;95.66
72560;BME280;62987;52.382;9.752;2022-12-05T08:34:20;101204.06;;;2.03;95.45
72560;BME280;62987;52.382;9.752;2022-12-05T08:36:49;101161.22;;;1.81;95.73
72560;BME280;62987;52.382;9.752;2022-12-05T08:39:18;101197.06;;;2.04;95.38
72560;BME280;62987;52.382;9.752;2022-12-05T08:41:47;101205.81;;;2.06;95.85
72560;BME280;62987;52.382;9.752;2022-12-05T08:44:15;101193.56;;;1.97;96.05
72560;BME280;62987;52.382;9.752;2022-12-05T08:46:47;101203.19;;;1.99;94.93
72560;BME280;62987;52.382;9.752;2022-12-05T08:49:16;101203.19;;;2.06;95.12
72560;BME280;62987;52.382;9.752;2022-12-05T08:51:44;101205.78;;;2.01;95.43
72560;BME280;62987;52.382;9.752;2022-12-05T08:54:12;101201.44;;;2.05;95.53
72560;BME280;62987;52.382;9.752;2022-12-05T08:56:40;101211.94;;;2.05;95.18
72560;BME280;62987;52.382;9.752;2022-12-05T08:59:08;101206.69;;;2.03;94.62
72560;BME280;62987;52.382;9.752;2022-12-05T09:01:36;101204.94;;;2.07;95.50
72560;BME280;62987;52.382;9.752;2022-12-05T09:04:07;101200.56;;;2.12;95.76
72560;BME280;62987;52.382;9.752;2022-12-05T09:06:35;101203.19;;;2.12;95.25
72560;BME280;62987;52.382;9.752;2022-12-05T09:09:07;101206.69;;;2.20;94.53
72560;BME280;62987;52.382;9.752;2022-12-05T09:11:40;101201.44;;;2.24;95.05
72560;BME280;62987;52.382;9.752;2022-12-05T09:14:12;101202.31;;;2.29;95.62
72560;BME280;62987;52.382;9.752;2022-12-05T09:16:43;101208.44;;;2.36;95.18
72560;BME280;62987;52.382;9.752;2022-12-05T09:19:14;101205.81;;;2.37;95.03
72560;BME280;62987;52.382;9.752;2022-12-05T09:21:43;101204.94;;;2.29;94.79
72560;BME280;62987;52.382;9.752;2022-12-05T09:24:12;101176.09;;;2.11;94.72
72560;BME280;62987;52.382;9.752;2022-12-05T09:26:41;101203.19;;;2.25;94.94
72560;BME280;62987;52.382;9.752;2022-12-05T09:29:10;101199.69;;;2.28;94.69
72560;BME280;62987;52.382;9.752;2022-12-05T09:31:44;101202.31;;;2.26;94.80
72560;BME280;62987;52.382;9.752;2022-12-05T09:34:14;101199.69;;;2.25;94.87
72560;BME280;62987;52.382;9.752;2022-12-05T09:36:45;101206.69;;;2.32;93.75
72560;BME280;62987;52.382;9.752;2022-12-05T09:39:24;101202.31;;;2.31;94.60
72560;BME280;62987;52.382;9.752;2022-12-05T09:42:05;101213.66;;;2.42;94.53
72560;BME280;62987;52.382;9.752;2022-12-05T09:44:47;101208.44;;;2.39;93.69
72560;BME280;62987;52.382;9.752;2022-12-05T09:47:27;101203.16;;;2.40;93.38
72560;BME280;62987;52.382;9.752;2022-12-05T09:50:00;101208.41;;;2.42;93.95
72560;BME280;62987;52.382;9.752;2022-12-05T09:52:32;101166.44;;;2.21;93.97
72560;BME280;62987;52.382;9.752;2022-12-05T09:55:05;101199.69;;;2.45;93.55
72560;BME280;62987;52.382;9.752;2022-12-05T09:57:41;101197.06;;;2.43;93.49
72560;BME280;62987;52.382;9.752;2022-12-05T10:00:12;101205.81;;;2.37;92.91
72560;BME280;62987;52.382;9.752;2022-12-05T10:02:49;101197.91;;;2.40;93.80
72560;BME280;62987;52.382;9.752;2022-12-05T10:05:24;101191.78;;;2.54;94.68
72560;BME280;62987;52.382;9.752;2022-12-05T10:08:02;101196.16;;;2.59;94.11
72560;BME280;62987;52.382;9.752;2022-12-05T10:10:42;101193.50;;;2.68;93.64
72560;BME280;62987;52.382;9.752;2022-12-05T10:13:22;101186.53;;;2.63;93.57
72560;BME280;62987;52.382;9.752;2022-12-05T10:15:57;101187.38;;;2.69;93.13
72560;BME280;62987;52.382;9.752;2022-12-05T10:18:31;101179.50;;;2.68;93.41
72560;BME280;62987;52.382;9.752;2022-12-05T10:21:12;101183.00;;;2.76;93.56
72560;BME280;62987;52.382;9.752;2022-12-05T10:23:49;101192.63;;;2.69;93.06
72560;BME280;62987;52.382;9.752;2022-12-05T10:26:28;101194.38;;;2.70;93.31
72560;BME280;62987;52.382;9.752;2022-12-05T10:29:01;101187.38;;;2.75;92.95
72560;BME280;62987;52.382;9.752;2022-12-05T10:31:35;101195.22;;;2.83;92.88
72560;BME280;62987;52.382;9.752;2022-12-05T10:34:10;101196.09;;;2.90;93.11
72560;BME280;62987;52.382;9.752;2022-12-05T10:36:52;101185.56;;;2.96;93.22
72560;BME280;62987;52.382;9.752;2022-12-05T10:39:22;101189.94;;;2.94;93.21
72560;BME280;62987;52.382;9.752;2022-12-05T10:41:50;101189.06;;;2.86;93.16
72560;BME280;62987;52.382;9.752;2022-12-05T10:44:18;101193.47;;;2.91;93.29
72560;BME280;62987;52.382;9.752;2022-12-05T10:46:47;101179.44;;;2.88;92.53
72560;BME280;62987;52.382;9.752;2022-12-05T10:49:17;101188.22;;;2.85;93.06
72560;BME280;62987;52.382;9.752;2022-12-05T10:51:46;101194.31;;;2.95;92.92
72560;BME280;62987;52.382;9.752;2022-12-05T10:54:17;101184.72;;;2.81;93.58
72560;BME280;62987;52.382;9.752;2022-12-05T10:56:49;101181.22;;;2.81;93.98
72560;BME280;62987;52.382;9.752;2022-12-05T10:59:18;101175.09;;;2.84;93.72
72560;BME280;62987;52.382;9.752;2022-12-05T11:01:50;101173.34;;;2.73;93.55
72560;BME280;62987;52.382;9.752;2022-12-05T11:04:29;101173.38;;;2.76;93.09
72560;BME280;62987;52.382;9.752;2022-12-05T11:07:01;101170.78;;;2.64;92.25
72560;BME280;62987;52.382;9.752;2022-12-05T11:09:31;101180.41;;;2.59;93.31
72560;BME280;62987;52.382;9.752;2022-12-05T11:12:03;101173.41;;;2.63;93.17
72560;BME280;62987;52.382;9.752;2022-12-05T11:14:32;101169.03;;;2.59;93.54
72560;BME280;62987;52.382;9.752;2022-12-05T11:17:03;101172.53;;;2.53;93.18
72560;BME280;62987;52.382;9.752;2022-12-05T11:19:34;101166.41;;;2.48;93.53
72560;BME280;62987;52.382;9.752;2022-12-05T11:22:05;101171.69;;;2.45;93.33
72560;BME280;62987;52.382;9.752;2022-12-05T11:24:35;101175.16;;;2.50;93.52
72560;BME280;62987;52.382;9.752;2022-12-05T11:27:19;101173.41;;;2.49;93.78
72560;BME280;62987;52.382;9.752;2022-12-05T11:29:54;101170.78;;;2.49;93.73
72560;BME280;62987;52.382;9.752;2022-12-05T11:32:26;101169.03;;;2.48;94.40
72560;BME280;62987;52.382;9.752;2022-12-05T11:35:00;101163.78;;;2.54;94.51
72560;BME280;62987;52.382;9.752;2022-12-05T11:37:37;101165.53;;;2.63;93.88
72560;BME280;62987;52.382;9.752;2022-12-05T11:40:15;101162.88;;;2.67;93.99
72560;BME280;62987;52.382;9.752;2022-12-05T11:43:10;101152.34;;;2.73;93.02
72560;BME280;62987;52.382;9.752;2022-12-05T11:45:50;101157.63;;;2.78;93.09
72560;BME280;62987;52.382;9.752;2022-12-05T11:48:31;101161.13;;;2.71;93.43
72560;BME280;62987;52.382;9.752;2022-12-05T11:51:14;101158.47;;;2.83;93.32
72560;BME280;62987;52.382;9.752;2022-12-05T11:54:31;101157.59;;;2.84;93.23
72560;BME280;62987;52.382;9.752;2022-12-05T11:57:37;101155.81;;;2.88;93.06
72560;BME280;62987;52.382;9.752;2022-12-05T12:00:20;101160.22;;;2.83;92.73
72560;BME280;62987;52.382;9.752;2022-12-05T12:03:10;101158.47;;;2.77;93.32
72560;BME280;62987;52.382;9.752;2022-12-05T12:05:47;101162.84;;;2.83;92.75
72560;BME280;62987;52.382;9.752;2022-12-05T12:08:21;101161.13;;;2.69;93.17
72560;BME280;62987;52.382;9.752;2022-12-05T12:11:00;101163.75;;;2.68;92.16
72560;BME280;62987;52.382;9.752;2022-12-05T12:13:41;101159.38;;;2.68;92.40
72560;BME280;62987;52.382;9.752;2022-12-05T12:16:20;101157.66;;;2.64;93.30
72560;BME280;62987;52.382;9.752;2022-12-05T12:19:01;101154.16;;;2.59;91.83
72560;BME280;62987;52.382;9.752;2022-12-05T12:21:46;101162.03;;;2.59;94.18
72560;BME280;62987;52.382;9.752;2022-12-05T12:24:21;101151.50;;;2.62;92.93
72560;BME280;62987;52.382;9.752;2022-12-05T12:27:02;101162.91;;;2.55;92.33
72560;BME280;62987;52.382;9.752;2022-12-05T12:29:44;101155.91;;;2.57;91.92
72560;BME280;62987;52.382;9.752;2022-12-05T12:32:24;101153.28;;;2.48;93.35
72560;BME280;62987;52.382;9.752;2022-12-05T12:35:25;101157.66;;;2.55;93.57
72560;BME280;62987;52.382;9.752;2022-12-05T12:38:13;101153.28;;;2.57;93.62
72560;BME280;62987;52.382;9.752;2022-12-05T12:40:47;101155.91;;;2.54;93.14
72560;BME280;62987;52.382;9.752;2022-12-05T12:43:29;101142.78;;;2.54;93.43
72560;BME280;62987;52.382;9.752;2022-12-05T12:46:29;101151.53;;;2.58;93.36
72560;BME280;62987;52.382;9.752;2022-12-05T12:49:10;101142.81;;;2.53;93.22
72560;BME280;62987;52.382;9.752;2022-12-05T12:54:47;101140.13;;;2.60;93.53
72560;BME280;62987;52.382;9.752;2022-12-05T12:57:39;101139.25;;;2.67;93.05
72560;BME280;62987;52.382;9.752;2022-12-05T13:00:21;101140.13;;;2.66;92.74
72560;BME280;62987;52.382;9.752;2022-12-05T13:02:54;101133.97;;;2.66;92.89
72560;BME280;62987;52.382;9.752;2022-12-05T13:05:29;101138.38;;;2.61;93.17
72560;BME280;62987;52.382;9.752;2022-12-05T13:08:03;101136.66;;;2.58;93.83
72560;BME280;62987;52.382;9.752;2022-12-05T13:10:36;101139.28;;;2.48;93.52
72560;BME280;62987;52.382;9.752;2022-12-05T13:13:10;101144.56;;;2.45;94.14
72560;BME280;62987;52.382;9.752;2022-12-05T13:15:44;101144.53;;;2.51;93.42
72560;BME280;62987;52.382;9.752;2022-12-05T13:18:17;101143.69;;;2.46;94.04
72560;BME280;62987;52.382;9.752;2022-12-05T13:20:47;101143.69;;;2.44;92.94
72560;BME280;62987;52.382;9.752;2022-12-05T13:23:19;101142.78;;;2.47;93.09
72560;BME280;62987;52.382;9.752;2022-12-05T13:25:48;101133.19;;;2.44;93.00
72560;BME280;62987;52.382;9.752;2022-12-05T13:28:25;101132.31;;;2.51;93.16
72560;BME280;62987;52.382;9.752;2022-12-05T13:30:56;101141.91;;;2.57;93.58
72560;BME280;62987;52.382;9.752;2022-12-05T13:33:30;101141.91;;;2.58;93.11
72560;BME280;62987;52.382;9.752;2022-12-05T13:36:06;101139.28;;;2.55;93.14